createdAt,value
2023-05-09T00:00:25.408Z,96226.47
2023-05-09T00:02:55.318Z,96216.97
2023-05-09T00:05:24.123Z,96221.81
2023-05-09T00:07:52.586Z,96220.72
2023-05-09T00:10:21.255Z,96223.66
2023-05-09T00:12:49.724Z,96228.19
2023-05-09T00:15:19.260Z,96229.75
2023-05-09T00:17:47.750Z,96225.41
2023-05-09T00:20:18.370Z,96214.63
2023-05-09T00:22:47.264Z,96219.75
2023-05-09T00:25:16.269Z,96210.41
2023-05-09T00:27:45.039Z,96212.44
2023-05-09T00:30:14.030Z,96210.69
2023-05-09T00:32:42.114Z,96221.59
2023-05-09T00:35:11.442Z,96217.38
2023-05-09T00:37:40.949Z,96222.69
2023-05-09T00:40:10.318Z,96221.25
2023-05-09T00:42:38.469Z,96214.09
2023-05-09T00:45:07.614Z,96224.06
2023-05-09T00:47:36.507Z,96206.78
2023-05-09T00:50:05.273Z,96207.56
2023-05-09T00:52:35.082Z,96204.44
2023-05-09T00:55:05.616Z,96204.44
2023-05-09T00:57:33.732Z,96208.19
2023-05-09T01:00:02.170Z,96219.88
2023-05-09T01:02:30.314Z,96205.19
2023-05-09T01:04:58.592Z,96212.06
2023-05-09T01:07:36.131Z,96202.56
2023-05-09T01:10:12.855Z,96208.28
2023-05-09T01:12:49.023Z,96211.84
2023-05-09T01:15:25.411Z,96212.44
2023-05-09T01:17:59.647Z,96221.47
2023-05-09T01:20:34.776Z,96206.38
2023-05-09T01:23:17.756Z,96209.94
2023-05-09T01:25:55.581Z,96201.03
2023-05-09T01:28:37.912Z,96195.41
2023-05-09T01:31:09.616Z,96195.50
2023-05-09T01:33:41.029Z,96184.13
2023-05-09T01:36:16.359Z,96181.78
2023-05-09T01:38:46.098Z,96189.91
2023-05-09T01:41:18.289Z,96184.31
2023-05-09T01:43:48.371Z,96185.09
2023-05-09T01:46:19.535Z,96176.38
2023-05-09T01:48:48.214Z,96173.53
2023-05-09T01:51:17.710Z,96182.09
2023-05-09T01:53:47.629Z,96175.53
2023-05-09T01:56:16.724Z,96171.81
2023-05-09T01:58:48.434Z,96171.03
2023-05-09T02:01:19.110Z,96170.38
2023-05-09T02:03:50.763Z,96175.19
2023-05-09T02:06:21.463Z,96169.41
2023-05-09T02:08:50.497Z,96173.94
2023-05-09T02:11:18.679Z,96175.00
2023-05-09T02:13:46.682Z,96188.53
2023-05-09T02:16:15.418Z,96176.41
2023-05-09T02:18:44.940Z,96186.00
2023-05-09T02:21:13.282Z,96167.03
2023-05-09T02:23:41.488Z,96177.88
2023-05-09T02:26:09.787Z,96173.78
2023-05-09T02:28:39.741Z,96174.38
2023-05-09T02:31:09.574Z,96172.84
2023-05-09T02:33:40.276Z,96178.91
2023-05-09T02:36:11.213Z,96179.50
2023-05-09T02:38:39.269Z,96171.88
2023-05-09T02:41:07.508Z,96171.09
2023-05-09T02:43:35.736Z,96162.69
2023-05-09T02:46:03.835Z,96172.47
2023-05-09T02:48:31.977Z,96171.38
2023-05-09T02:51:00.001Z,96176.97
2023-05-09T02:53:29.611Z,96178.34
2023-05-09T02:55:57.623Z,96171.50
2023-05-09T02:58:25.684Z,96164.47
2023-05-09T03:00:53.782Z,96166.44
2023-05-09T03:03:22.392Z,96167.06
2023-05-09T03:05:50.533Z,96166.28
2023-05-09T03:08:18.549Z,96163.94
2023-05-09T03:10:47.979Z,96172.94
2023-05-09T03:13:16.009Z,96177.75
2023-05-09T03:15:44.111Z,96177.25
2023-05-09T03:18:12.564Z,96176.78
2023-05-09T03:20:40.634Z,96179.22
2023-05-09T03:23:08.662Z,96172.19
2023-05-09T03:25:36.756Z,96175.91
2023-05-09T03:28:06.621Z,96171.72
2023-05-09T03:30:34.647Z,96175.91
2023-05-09T03:33:03.297Z,96172.00
2023-05-09T03:35:31.319Z,96183.38
2023-05-09T03:37:59.433Z,96178.84
2023-05-09T03:40:27.575Z,96188.66
2023-05-09T03:42:55.957Z,96176.50
2023-05-09T03:45:25.586Z,96168.47
2023-05-09T03:47:53.748Z,96161.75
2023-05-09T03:50:21.873Z,96156.75
2023-05-09T03:52:50.576Z,96161.25
2023-05-09T03:55:18.655Z,96148.84
2023-05-09T03:57:46.736Z,96150.88
2023-05-09T04:00:15.340Z,96149.50
2023-05-09T04:02:44.923Z,96159.78
2023-05-09T04:05:13.275Z,96154.97
2023-05-09T04:07:42.097Z,96151.25
2023-05-09T04:10:11.055Z,96149.69
2023-05-09T04:12:39.332Z,96147.66
2023-05-09T04:15:09.118Z,96150.28
2023-05-09T04:17:37.207Z,96153.63
2023-05-09T04:20:08.304Z,96142.66
2023-05-09T04:22:36.378Z,96148.31
2023-05-09T04:25:05.192Z,96154.56
2023-05-09T04:27:33.264Z,96158.47
2023-05-09T04:30:01.365Z,96156.28
2023-05-09T04:32:29.482Z,96147.59
2023-05-09T04:34:57.559Z,96150.22
2023-05-09T04:37:27.079Z,96154.44
2023-05-09T04:39:55.119Z,96161.59
2023-05-09T04:42:23.225Z,96168.72
2023-05-09T04:44:51.895Z,96168.53
2023-05-09T04:47:20.064Z,96166.09
2023-05-09T04:49:48.045Z,96169.69
2023-05-09T04:52:16.108Z,96171.16
2023-05-09T04:54:45.786Z,96156.25
2023-05-09T04:57:18.239Z,96155.66
2023-05-09T04:59:47.031Z,96153.66
2023-05-09T05:02:15.165Z,96154.81
2023-05-09T05:04:43.231Z,96153.16
2023-05-09T05:07:11.271Z,96158.34
2023-05-09T05:09:39.333Z,96158.72
2023-05-09T05:12:09.768Z,96159.50
2023-05-09T05:14:38.041Z,96152.81
2023-05-09T05:17:06.177Z,96154.38
2023-05-09T05:19:34.343Z,96159.34
2023-05-09T05:22:03.010Z,96154.72
2023-05-09T05:24:31.150Z,96152.31
2023-05-09T05:26:59.196Z,96152.50
2023-05-09T05:29:28.647Z,96148.81
2023-05-09T05:31:56.948Z,96151.34
2023-05-09T05:34:25.181Z,96159.94
2023-05-09T05:36:53.233Z,96153.56
2023-05-09T05:39:21.285Z,96149.84
2023-05-09T05:41:49.413Z,96149.38
2023-05-09T05:44:17.550Z,96140.69
2023-05-09T05:46:47.024Z,96136.00
2023-05-09T05:49:15.040Z,96137.72
2023-05-09T05:51:43.223Z,96141.31
2023-05-09T05:54:11.237Z,96135.81
2023-05-09T05:56:39.244Z,96137.34
2023-05-09T05:59:07.349Z,96128.91
2023-05-09T06:01:35.375Z,96140.44
2023-05-09T06:04:05.293Z,96139.94
2023-05-09T06:06:33.604Z,96138.22
2023-05-09T06:09:01.654Z,96130.75
2023-05-09T06:11:29.670Z,96127.06
2023-05-09T06:13:57.722Z,96130.22
2023-05-09T06:16:25.891Z,96119.31
2023-05-09T06:18:55.923Z,96127.34
2023-05-09T06:21:26.385Z,96105.06
2023-05-09T06:24:05.941Z,96111.19
2023-05-09T06:26:38.578Z,96102.28
2023-05-09T06:29:07.832Z,96107.00
2023-05-09T06:31:38.799Z,96101.34
2023-05-09T06:34:07.498Z,96096.91
2023-05-09T06:36:36.966Z,96087.63
2023-05-09T06:39:05.085Z,96088.16
2023-05-09T06:41:33.114Z,96079.94
2023-05-09T06:44:02.618Z,96079.69
2023-05-09T06:46:30.790Z,96073.53
2023-05-09T06:49:01.831Z,96068.09
2023-05-09T06:51:30.132Z,96067.22
2023-05-09T06:53:59.579Z,96071.06
2023-05-09T06:56:27.745Z,96063.88
2023-05-09T06:58:55.931Z,96059.41
2023-05-09T07:01:24.083Z,96048.94
2023-05-09T07:03:52.299Z,96041.25
2023-05-09T07:06:20.762Z,96047.19
2023-05-09T07:08:48.804Z,96040.69
2023-05-09T07:11:18.239Z,96045.38
2023-05-09T07:13:46.364Z,96041.94
2023-05-09T07:16:14.769Z,96032.88
2023-05-09T07:18:42.936Z,96027.56
2023-05-09T07:21:11.204Z,96024.75
2023-05-09T07:23:39.290Z,96021.84
2023-05-09T07:26:07.352Z,96014.53
2023-05-09T07:28:36.814Z,96010.31
2023-05-09T07:31:06.178Z,95999.25
2023-05-09T07:33:34.750Z,95995.81
2023-05-09T07:36:02.976Z,95995.16
2023-05-09T07:38:31.062Z,95989.97
2023-05-09T07:40:59.102Z,95985.41
2023-05-09T07:43:27.401Z,95980.66
2023-05-09T07:45:56.907Z,95978.31
2023-05-09T07:48:24.998Z,95967.22
2023-05-09T07:50:53.049Z,95967.13
2023-05-09T07:53:21.125Z,95969.03
2023-05-09T07:55:50.333Z,95959.84
2023-05-09T07:58:18.515Z,95952.44
2023-05-09T08:00:46.584Z,95943.03
2023-05-09T08:03:16.166Z,95944.03
2023-05-09T08:05:44.330Z,95935.75
2023-05-09T08:08:12.366Z,95934.34
2023-05-09T08:10:40.451Z,95929.06
2023-05-09T08:13:08.524Z,95920.25
2023-05-09T08:15:36.731Z,95919.50
2023-05-09T08:18:04.963Z,95922.78
2023-05-09T08:20:34.696Z,95915.47
2023-05-09T08:23:02.757Z,95908.66
2023-05-09T08:25:30.811Z,95908.59
2023-05-09T08:27:58.979Z,95904.91
2023-05-09T08:30:29.320Z,95893.63
2023-05-09T08:32:57.546Z,95899.03
2023-05-09T08:35:26.007Z,95890.53
2023-05-09T08:37:55.450Z,95882.16
2023-05-09T08:40:23.693Z,95874.81
2023-05-09T08:42:52.560Z,95872.38
2023-05-09T08:45:26.890Z,95865.69
2023-05-09T08:47:55.463Z,95860.50
2023-05-09T08:50:24.334Z,95846.47
2023-05-09T08:52:53.116Z,95843.38
2023-05-09T08:55:23.333Z,95843.78
2023-05-09T08:57:51.546Z,95828.66
2023-05-09T09:00:21.788Z,95834.16
2023-05-09T09:02:50.774Z,95821.84
2023-05-09T09:05:39.387Z,95821.13
2023-05-09T09:08:08.824Z,95811.19
2023-05-09T09:10:43.236Z,95804.75
2023-05-09T09:13:12.751Z,95805.06
2023-05-09T09:15:43.579Z,95794.75
2023-05-09T09:18:17.461Z,95797.91
2023-05-09T09:20:49.265Z,95795.41
2023-05-09T09:23:21.149Z,95789.31
2023-05-09T09:25:50.810Z,95782.66
2023-05-09T09:28:19.099Z,95780.50
2023-05-09T09:30:48.820Z,95774.66
2023-05-09T09:33:23.510Z,95776.88
2023-05-09T09:35:52.336Z,95779.59
2023-05-09T09:38:20.887Z,95772.19
2023-05-09T09:40:56.898Z,95762.88
2023-05-09T09:43:31.971Z,95754.84
2023-05-09T09:46:02.486Z,95751.06
2023-05-09T09:48:33.960Z,95751.06
2023-05-09T09:51:09.248Z,95745.00
2023-05-09T09:53:40.711Z,95731.75
2023-05-09T09:56:11.268Z,95733.22
2023-05-09T09:58:39.543Z,95725.03
2023-05-09T10:01:08.689Z,95720.06
2023-05-09T10:03:38.525Z,95724.38
2023-05-09T10:06:07.229Z,95714.31
2023-05-09T10:08:35.514Z,95718.00
2023-05-09T10:11:04.049Z,95714.31
2023-05-09T10:13:37.485Z,95694.38
2023-05-09T10:16:06.867Z,95691.13
2023-05-09T10:18:35.788Z,95681.81
2023-05-09T10:21:05.411Z,95686.00
2023-05-09T10:23:38.549Z,95686.72
2023-05-09T10:26:13.889Z,95680.16
2023-05-09T10:28:46.461Z,95688.09
2023-05-09T10:31:19.972Z,95675.84
2023-05-09T10:33:49.409Z,95671.81
2023-05-09T10:36:20.604Z,95671.63
2023-05-09T10:38:49.514Z,95664.91
2023-05-09T10:41:18.934Z,95656.88
2023-05-09T10:43:48.977Z,95653.63
2023-05-09T10:46:17.504Z,95642.75
2023-05-09T10:48:46.148Z,95646.59
2023-05-09T10:51:14.888Z,95636.94
2023-05-09T10:53:44.668Z,95633.41
2023-05-09T10:56:24.616Z,95628.63
2023-05-09T10:58:54.752Z,95621.53
2023-05-09T11:01:35.514Z,95621.97
2023-05-09T11:04:10.312Z,95616.66
2023-05-09T11:06:43.940Z,95614.03
2023-05-09T11:09:27.194Z,95609.44
2023-05-09T11:11:57.075Z,95606.31
2023-05-09T11:14:34.680Z,95604.59
2023-05-09T11:17:04.594Z,95598.69
2023-05-09T11:19:57.784Z,95594.06
2023-05-09T11:22:28.133Z,95581.72
2023-05-09T11:25:04.817Z,95576.22
2023-05-09T11:27:40.828Z,95574.69
2023-05-09T11:30:12.607Z,95570.19
2023-05-09T11:32:46.490Z,95573.66
2023-05-09T11:35:17.106Z,95570.00
2023-05-09T11:37:50.083Z,95570.88
2023-05-09T11:40:19.857Z,95567.56
2023-05-09T11:42:49.936Z,95557.59
2023-05-09T11:45:19.685Z,95554.19
2023-05-09T11:47:48.576Z,95561.94
2023-05-09T11:50:18.100Z,95555.09
2023-05-09T11:52:47.320Z,95558.19
2023-05-09T11:55:17.576Z,95550.50
2023-05-09T11:57:47.882Z,95545.09
2023-05-09T12:00:17.991Z,95550.47
2023-05-09T12:02:48.568Z,95542.78
2023-05-09T12:05:18.715Z,95537.41
2023-05-09T12:07:47.374Z,95542.78
2023-05-09T12:10:17.120Z,95544.69
2023-05-09T12:12:47.063Z,95537.75
2023-05-09T12:15:16.104Z,95528.19
2023-05-09T12:17:47.078Z,95525.91
2023-05-09T12:20:17.741Z,95523.59
2023-05-09T12:22:45.940Z,95524.38
2023-05-09T12:25:14.235Z,95526.72
2023-05-09T12:27:43.262Z,95525.97
2023-05-09T12:30:16.156Z,95518.31
2023-05-09T12:32:44.591Z,95525.25
2023-05-09T12:35:12.762Z,95524.06
2023-05-09T12:37:55.609Z,95517.13
2023-05-09T12:40:23.806Z,95511.34
2023-05-09T12:42:53.870Z,95515.88
2023-05-09T12:45:22.790Z,95523.81
2023-05-09T12:47:53.584Z,95511.78
2023-05-09T12:50:21.805Z,95520.13
2023-05-09T12:53:02.661Z,95527.28
2023-05-09T12:55:31.827Z,95519.19
2023-05-09T12:58:01.998Z,95516.78
2023-05-09T13:00:30.768Z,95527.44
2023-05-09T13:02:59.619Z,95522.78
2023-05-09T13:05:27.810Z,95526.53
2023-05-09T13:07:58.588Z,95529.44
2023-05-09T13:10:28.993Z,95526.63
2023-05-09T13:12:57.460Z,95523.69
2023-05-09T13:15:26.857Z,95522.41
2023-05-09T13:17:55.641Z,95518.56
2023-05-09T13:20:23.938Z,95512.84
2023-05-09T13:22:51.897Z,95502.50
2023-05-09T13:25:21.907Z,95505.94
2023-05-09T13:27:50.041Z,95517.72
2023-05-09T13:30:19.491Z,95509.19
2023-05-09T13:32:47.842Z,95507.03
2023-05-09T13:35:16.692Z,95502.19
2023-05-09T13:37:44.862Z,95508.19
2023-05-09T13:40:14.031Z,95502.09
2023-05-09T13:42:43.789Z,95500.50
2023-05-09T13:45:12.801Z,95503.13
2023-05-09T13:47:41.038Z,95506.91
2023-05-09T13:50:09.693Z,95512.47
2023-05-09T13:52:37.711Z,95513.19
2023-05-09T13:55:06.500Z,95504.03
2023-05-09T13:57:34.624Z,95501.84
2023-05-09T14:00:05.183Z,95501.06
2023-05-09T14:02:33.229Z,95500.34
2023-05-09T14:05:03.076Z,95493.88
2023-05-09T14:07:31.142Z,95494.19
2023-05-09T14:10:11.359Z,95495.72
2023-05-09T14:12:44.297Z,95500.19
2023-05-09T14:15:14.483Z,95499.38
2023-05-09T14:17:43.645Z,95502.28
2023-05-09T14:20:12.828Z,95500.84
2023-05-09T14:22:41.187Z,95493.34
2023-05-09T14:25:10.031Z,95488.53
2023-05-09T14:27:38.105Z,95495.09
2023-05-09T14:30:07.002Z,95488.88
2023-05-09T14:32:36.417Z,95486.88
2023-05-09T14:35:04.742Z,95487.91
2023-05-09T14:37:33.473Z,95489.28
2023-05-09T14:40:05.524Z,95481.50
2023-05-09T14:42:33.870Z,95483.34
2023-05-09T14:45:01.884Z,95489.41
2023-05-09T14:47:30.014Z,95486.72
2023-05-09T14:50:00.223Z,95486.34
2023-05-09T14:52:28.920Z,95480.25
2023-05-09T14:54:57.121Z,95480.66
2023-05-09T14:57:25.130Z,95490.44
2023-05-09T14:59:53.176Z,95484.28
2023-05-09T15:02:21.339Z,95490.28
2023-05-09T15:04:49.500Z,95488.69
2023-05-09T15:07:19.386Z,95494.03
2023-05-09T15:09:47.454Z,95501.59
2023-05-09T15:12:16.098Z,95495.91
2023-05-09T15:14:44.193Z,95500.00
2023-05-09T15:17:12.422Z,95500.53
2023-05-09T15:19:41.849Z,95504.84
2023-05-09T15:22:09.893Z,95502.31
2023-05-09T15:24:42.721Z,95511.75
2023-05-09T15:27:10.811Z,95519.53
2023-05-09T15:29:38.825Z,95529.88
2023-05-09T15:32:07.401Z,95520.25
2023-05-09T15:34:35.527Z,95518.03
2023-05-09T15:37:03.562Z,95528.31
2023-05-09T15:39:36.195Z,95525.81
2023-05-09T15:42:08.707Z,95518.47
2023-05-09T15:44:36.904Z,95522.50
2023-05-09T15:47:05.335Z,95524.59
2023-05-09T15:49:34.117Z,95525.41
2023-05-09T15:52:04.026Z,95525.81
2023-05-09T15:54:32.249Z,95530.47
2023-05-09T15:57:00.744Z,95533.38
2023-05-09T15:59:30.260Z,95533.91
2023-05-09T16:01:58.447Z,95541.28
2023-05-09T16:04:26.728Z,95543.25
2023-05-09T16:06:55.549Z,95554.97
2023-05-09T16:09:23.685Z,95556.63
2023-05-09T16:11:51.828Z,95555.22
2023-05-09T16:14:20.133Z,95557.25
2023-05-09T16:16:51.576Z,95561.34
2023-05-09T16:19:19.725Z,95567.66
2023-05-09T16:21:48.188Z,95564.78
2023-05-09T16:24:17.931Z,95571.63
2023-05-09T16:26:46.076Z,95562.56
2023-05-09T16:29:14.179Z,95565.66
2023-05-09T16:31:42.345Z,95568.06
2023-05-09T16:34:12.153Z,95570.59
2023-05-09T16:36:40.325Z,95574.34
2023-05-09T16:39:08.774Z,95575.16
2023-05-09T16:41:37.825Z,95578.63
2023-05-09T16:44:05.989Z,95580.81
2023-05-09T16:46:34.173Z,95578.72
2023-05-09T16:49:02.432Z,95578.53
2023-05-09T16:51:31.984Z,95579.63
2023-05-09T16:54:00.130Z,95573.22
2023-05-09T16:56:28.294Z,95574.56
2023-05-09T16:58:56.392Z,95566.56
2023-05-09T17:01:24.589Z,95563.25
2023-05-09T17:03:52.818Z,95567.91
2023-05-09T17:06:20.966Z,95571.00
2023-05-09T17:08:51.083Z,95565.56
2023-05-09T17:11:19.186Z,95573.47
2023-05-09T17:13:47.567Z,95572.19
2023-05-09T17:16:15.657Z,95575.94
2023-05-09T17:18:46.194Z,95577.25
2023-05-09T17:21:14.914Z,95580.53
2023-05-09T17:23:43.052Z,95583.84
2023-05-09T17:26:12.809Z,95579.75
2023-05-09T17:28:41.020Z,95581.88
2023-05-09T17:31:09.121Z,95584.78
2023-05-09T17:33:37.405Z,95589.53
2023-05-09T17:36:05.887Z,95593.41
2023-05-09T17:38:35.033Z,95591.41
2023-05-09T17:41:03.217Z,95592.63
2023-05-09T17:43:32.821Z,95589.66
2023-05-09T17:46:01.046Z,95591.19
2023-05-09T17:48:29.347Z,95586.78
2023-05-09T17:50:57.474Z,95599.06
2023-05-09T17:53:25.561Z,95596.97
2023-05-09T17:55:53.674Z,95594.09
2023-05-09T17:58:23.395Z,95593.09
2023-05-09T18:00:55.415Z,95598.06
2023-05-09T18:03:23.685Z,95604.94
2023-05-09T18:05:51.866Z,95604.47
2023-05-09T18:08:20.052Z,95616.22
2023-05-09T18:10:48.310Z,95616.22
2023-05-09T18:13:16.664Z,95619.19
2023-05-09T18:15:44.967Z,95616.00
2023-05-09T18:18:15.685Z,95626.81
2023-05-09T18:20:46.369Z,95627.03
2023-05-09T18:23:15.732Z,95631.78
2023-05-09T18:25:43.820Z,95624.13
2023-05-09T18:28:12.005Z,95636.56
2023-05-09T18:30:40.291Z,95639.00
2023-05-09T18:33:08.417Z,95642.28
2023-05-09T18:35:38.019Z,95644.38
2023-05-09T18:38:06.225Z,95645.69
2023-05-09T18:40:34.397Z,95650.28
2023-05-09T18:43:02.461Z,95654.28
2023-05-09T18:45:30.953Z,95646.31
2023-05-09T18:47:59.548Z,95657.38
2023-05-09T18:50:27.675Z,95662.34
2023-05-09T18:52:59.652Z,95658.94
2023-05-09T18:55:28.056Z,95663.56
2023-05-09T18:57:56.331Z,95672.75
2023-05-09T19:00:24.446Z,95674.72
2023-05-09T19:02:52.777Z,95681.84
2023-05-09T19:05:21.021Z,95682.88
2023-05-09T19:07:49.132Z,95683.25
2023-05-09T19:10:19.050Z,95687.66
2023-05-09T19:12:47.582Z,95690.44
2023-05-09T19:15:15.800Z,95687.34
2023-05-09T19:17:43.956Z,95681.78
2023-05-09T19:20:13.920Z,95688.38
2023-05-09T19:22:46.319Z,95681.38
2023-05-09T19:25:14.465Z,95681.09
2023-05-09T19:27:44.018Z,95679.09
2023-05-09T19:30:15.325Z,95689.38
2023-05-09T19:32:43.952Z,95684.72
2023-05-09T19:35:12.748Z,95681.59
2023-05-09T19:37:40.873Z,95680.72
2023-05-09T19:40:09.689Z,95683.56
2023-05-09T19:42:37.925Z,95682.00
2023-05-09T19:45:08.500Z,95675.59
2023-05-09T19:47:36.821Z,95685.09
2023-05-09T19:50:05.371Z,95688.53
2023-05-09T19:52:33.435Z,95686.34
2023-05-09T19:55:01.589Z,95692.41
2023-05-09T19:57:29.684Z,95680.44
2023-05-09T19:59:58.450Z,95687.78
2023-05-09T20:02:28.164Z,95681.44
2023-05-09T20:04:56.342Z,95694.22
2023-05-09T20:07:24.462Z,95691.25
2023-05-09T20:09:52.522Z,95685.97
2023-05-09T20:12:20.831Z,95689.56
2023-05-09T20:14:48.883Z,95694.06
2023-05-09T20:17:16.979Z,95688.63
2023-05-09T20:19:46.450Z,95684.59
2023-05-09T20:22:14.542Z,95692.09
2023-05-09T20:24:42.795Z,95690.53
2023-05-09T20:27:10.947Z,95687.44
2023-05-09T20:29:38.988Z,95691.63
2023-05-09T20:32:07.407Z,95690.69
2023-05-09T20:34:35.602Z,95692.06
2023-05-09T20:37:05.105Z,95688.91
2023-05-09T20:39:33.224Z,95688.28
2023-05-09T20:42:02.580Z,95695.41
2023-05-09T20:44:30.760Z,95693.22
2023-05-09T20:46:58.810Z,95693.22
2023-05-09T20:49:27.302Z,95687.00
2023-05-09T20:51:56.156Z,95680.19
2023-05-09T20:54:25.944Z,95683.16
2023-05-09T20:56:53.985Z,95676.00
2023-05-09T20:59:22.015Z,95684.09
2023-05-09T21:01:52.288Z,95686.09
2023-05-09T21:04:20.487Z,95686.09
2023-05-09T21:06:48.568Z,95682.06
2023-05-09T21:09:16.657Z,95687.84
2023-05-09T21:11:46.190Z,95690.81
2023-05-09T21:14:14.432Z,95689.13
2023-05-09T21:16:44.014Z,95692.72
2023-05-09T21:19:12.140Z,95687.44
2023-05-09T21:21:40.170Z,95684.59
2023-05-09T21:24:09.797Z,95698.31
2023-05-09T21:26:37.984Z,95692.09
2023-05-09T21:29:07.736Z,95703.59
2023-05-09T21:31:35.876Z,95706.84
2023-05-09T21:34:09.828Z,95705.44
2023-05-09T21:36:38.725Z,95704.03
2023-05-09T21:39:09.514Z,95702.63
2023-05-09T21:41:38.423Z,95709.16
2023-05-09T21:44:08.569Z,95718.50
2023-05-09T21:46:36.757Z,95714.94
2023-05-09T21:49:05.164Z,95715.56
2023-05-09T21:51:33.555Z,95716.19
2023-05-09T21:54:02.080Z,95711.72
2023-05-09T21:56:30.147Z,95721.06
2023-05-09T21:58:58.168Z,95727.44
2023-05-09T22:01:27.593Z,95720.47
2023-05-09T22:03:56.465Z,95730.56
2023-05-09T22:06:24.572Z,95727.16
2023-05-09T22:08:52.689Z,95725.94
2023-05-09T22:11:20.788Z,95729.22
2023-05-09T22:13:48.845Z,95725.34
2023-05-09T22:16:17.604Z,95718.03
2023-05-09T22:18:47.041Z,95713.69
2023-05-09T22:21:15.044Z,95721.31
2023-05-09T22:23:43.077Z,95719.91
2023-05-09T22:26:11.154Z,95708.72
2023-05-09T22:28:39.153Z,95715.69
2023-05-09T22:31:07.792Z,95706.22
2023-05-09T22:33:35.868Z,95709.94
2023-05-09T22:36:06.127Z,95711.50
2023-05-09T22:38:34.178Z,95710.88
2023-05-09T22:41:02.241Z,95711.81
2023-05-09T22:43:38.755Z,95711.19
2023-05-09T22:46:07.543Z,95716.31
2023-05-09T22:48:35.793Z,95704.34
2023-05-09T22:51:05.297Z,95717.09
2023-05-09T22:53:33.903Z,95725.50
2023-05-09T22:56:01.926Z,95718.81
2023-05-09T22:58:30.018Z,95709.47
2023-05-09T23:00:58.119Z,95710.88
2023-05-09T23:03:26.402Z,95707.78
2023-05-09T23:05:54.523Z,95702.50
2023-05-09T23:08:24.070Z,95707.00
2023-05-09T23:10:52.142Z,95706.38
2023-05-09T23:13:20.380Z,95708.25
2023-05-09T23:15:48.717Z,95722.72
2023-05-09T23:18:16.866Z,95719.59
2023-05-09T23:20:46.201Z,95706.84
2023-05-09T23:23:14.368Z,95710.88
2023-05-09T23:25:44.579Z,95712.13
2023-05-09T23:28:12.708Z,95707.78
2023-05-09T23:30:40.740Z,95706.38
2023-05-09T23:33:08.784Z,95709.19
2023-05-09T23:35:36.879Z,95707.16
2023-05-09T23:38:05.106Z,95707.78
2023-05-09T23:40:33.171Z,95715.22
2023-05-09T23:43:02.612Z,95712.75
2023-05-09T23:45:30.697Z,95706.19
2023-05-09T23:47:58.703Z,95706.31
2023-05-09T23:50:26.723Z,95714.06
2023-05-09T23:52:54.770Z,95706.31
2023-05-09T23:55:22.757Z,95707.97
2023-05-09T23:57:50.828Z,95709.19
